Bente — PBTG — position and weather

sailwx.info

Track history (hours):
 
Tides and Currents Weather Stations Pressure Air Temp Water Temp Dewpoint Dewpoint Depression Visibility Wind Speed Wind Dir Waves Ship Positions

Bente

Last reported at 2017-Dec-04 10:30 UTC. Time now 2017-Dec-13 07:23 UTC.
Position N 35°54' W 005°19'.
Warning: this ship's position is 8 days out of date.

Length 90 m; draft 5.5 m.

Type: Ship. MMSI: 245870000.

Date/timePositionNaut miles runAvg speedWind from/ knotsBaromVisibWave heightAir tempDewpointWater temp
2017-Dec-04 10:30N 35°54' W 005°19'0 0.0
2017-Dec-04 10:00N 35°54' W 005°19'0 0.0
2017-Dec-04 09:30N 35°54' W 005°19'0 0.0
2017-Dec-04 09:00N 35°54' W 005°19'0 0.0
2017-Dec-04 08:30N 35°54' W 005°19'0 0.8
2017-Dec-04 08:00N 35°54' W 005°19'2 4.2
2017-Dec-04 07:30N 35°56' W 005°20'1 2.4
2017-Dec-04 07:00N 35°56' W 005°21'1 2.9
2017-Dec-04 06:30N 35°56' W 005°23'611.1
2017-Dec-04 06:00N 35°57' W 005°30'258 8.2
2017-Dec-02 22:38N 38°21' W 009°58'2 9.8
2017-Dec-02 22:28N 38°23' W 009°59'510.0
2017-Dec-02 22:00N 38°27' W 010°00'510.1
2017-Dec-02 21:30N 38°32' W 010°02'810.1
2017-Dec-02 20:43N 38°40' W 010°04'3 9.9
2017-Dec-02 20:23N 38°43' W 010°05'410.2
2017-Dec-02 20:00N 38°47' W 010°05'610.4
2017-Dec-02 19:27N 38°53' W 010°05'510.6
2017-Dec-02 19:01N 38°57' W 010°05'510.6
2017-Dec-02 18:30N 39°03' W 010°05'510.8
2017-Dec-02 18:00N 39°08' W 010°05'510.7
2017-Dec-02 17:30N 39°14' W 010°05'  
2017-Nov-29 16:31N 49°47' W 003°22'0 9.3
2017-Nov-29 16:28N 49°47' W 003°21'4 9.2
2017-Nov-29 16:00N 49°49' W 003°15'4 9.0
2017-Nov-29 15:31N 49°51' W 003°09'5 8.9
2017-Nov-29 14:59N 49°54' W 003°03'4 8.9
2017-Nov-29 14:31N 49°56' W 002°57'4 8.8
2017-Nov-29 14:00N 49°58' W 002°51'5 9.0
2017-Nov-29 13:26N 49°59' W 002°43'4 9.4
2017-Nov-29 13:00N 49°60' W 002°37'19 9.7
2017-Nov-29 11:01N 49°58' W 002°07'010.2
2017-Nov-29 10:59N 49°58' W 002°07'511.0
2017-Nov-29 10:30N 49°56' W 001°59'611.2
2017-Nov-29 10:00N 49°54' W 001°51'611.6
2017-Nov-29 09:30N 49°52' W 001°42'611.6
2017-Nov-29 09:00N 49°50' W 001°34'611.5
2017-Nov-29 08:30N 49°48' W 001°26'611.8
2017-Nov-29 08:00N 49°46' W 001°17'611.2
2017-Nov-29 07:30N 49°44' W 001°09'510.1
2017-Nov-29 07:01N 49°42' W 001°01'5 9.5
2017-Nov-29 06:30N 49°41' W 000°54'5 9.3
2017-Nov-29 06:00N 49°39' W 000°48'5 9.1
2017-Nov-29 05:30N 49°38' W 000°41'4 8.9
2017-Nov-29 05:00N 49°37' W 000°34'4 8.6
2017-Nov-29 04:30N 49°35' W 000°29'4 8.5
2017-Nov-29 04:00N 49°33' W 000°22'4 8.7
2017-Nov-29 03:30N 49°32' W 000°16'4 9.0
2017-Nov-29 03:00N 49°30' W 000°10'5 9.4
2017-Nov-29 02:30N 49°29' W 000°03'4 8.8
2017-Nov-29 02:00N 49°27' E 000°03'5 9.4
2017-Nov-29 01:30N 49°26' E 000°10'510.7
2017-Nov-29 01:00N 49°26' E 000°19'611.5
2017-Nov-29 00:30N 49°28' E 000°27'5 9.1
2017-Nov-29 00:00N 49°27' E 000°34'5 9.1
2017-Nov-28 23:30N 49°29' E 000°40'4 8.7
2017-Nov-28 23:00N 49°31' E 000°46'5 9.8
2017-Nov-28 22:30N 49°26' E 000°48'2 4.8
2017-Nov-28 22:00N 49°25' E 000°52'4 8.2
2017-Nov-28 21:31N 49°29' E 000°55'5 9.7
2017-Nov-28 21:00N 49°24' E 000°55'4 7.1
2017-Nov-28 20:31N 49°21' E 000°59'1 2.2
2017-Nov-28 20:00N 49°22' E 000°60'0 0.0
2017-Nov-28 19:30N 49°22' E 000°60'0 0.0
2017-Nov-28 19:00N 49°22' E 000°60'0 0.0
2017-Nov-28 18:30N 49°22' E 000°60'0 0.0
2017-Nov-28 18:00N 49°22' E 000°60'0 0.0
2017-Nov-28 17:28N 49°22' E 000°60'0 0.0
2017-Nov-28 16:58N 49°22' E 000°60'0 0.0
2017-Nov-28 16:28N 49°22' E 000°60'0 0.0
2017-Nov-28 15:58N 49°22' E 000°60'0 0.0
2017-Nov-28 14:57N 49°22' E 000°60'0 0.0
2017-Nov-28 14:30N 49°22' E 000°60'0 0.0
2017-Nov-28 14:00N 49°22' E 000°60'0 0.0
2017-Nov-28 13:30N 49°22' E 000°60'0 0.0
2017-Nov-28 12:59N 49°22' E 000°60'0 0.0
2017-Nov-28 12:29N 49°22' E 000°60'0 0.0
2017-Nov-28 11:59N 49°22' E 000°60'0 0.0
2017-Nov-28 11:29N 49°22' E 000°60'0 0.0
2017-Nov-28 10:58N 49°22' E 000°60'0 0.0
2017-Nov-28 10:28N 49°22' E 000°60'0 0.0
2017-Nov-28 09:58N 49°22' E 000°60'0 0.0
2017-Nov-28 09:28N 49°22' E 000°60'0 0.0
2017-Nov-28 08:58N 49°22' E 000°60'0 0.0
2017-Nov-28 08:30N 49°22' E 000°60'0 0.0
2017-Nov-28 08:00N 49°22' E 000°60'0 0.0
2017-Nov-28 07:30N 49°22' E 000°60'0 0.0
2017-Nov-28 07:00N 49°22' E 000°60'0 0.0
2017-Nov-28 06:29N 49°22' E 000°60'0 0.0
2017-Nov-28 05:59N 49°22' E 000°60'0 0.0
2017-Nov-28 05:29N 49°22' E 000°60'0 0.0
2017-Nov-28 04:29N 49°22' E 000°60'0 0.0
2017-Nov-28 03:58N 49°22' E 000°60'0 0.0
2017-Nov-28 03:28N 49°22' E 000°60'0 0.0
2017-Nov-28 02:58N 49°22' E 000°60'0 0.0
2017-Nov-28 02:28N 49°22' E 000°60'0 0.0
2017-Nov-28 01:58N 49°22' E 000°60'0 0.0
2017-Nov-28 01:30N 49°22' E 000°60'0 0.0
2017-Nov-28 01:00N 49°22' E 000°60'0 0.0
2017-Nov-28 00:30N 49°22' E 000°60'0 0.0
2017-Nov-27 23:57N 49°22' E 000°60'0 0.0
2017-Nov-27 23:29N 49°22' E 000°60'0 0.0
2017-Nov-27 22:59N 49°22' E 000°60'0 0.0
2017-Nov-27 22:29N 49°22' E 000°60'0 0.0
2017-Nov-27 21:59N 49°22' E 000°60'0 0.0
2017-Nov-27 21:29N 49°22' E 000°60'0 0.0
2017-Nov-27 20:58N 49°22' E 000°60'0 0.0
2017-Nov-27 20:25N 49°22' E 000°60'0 0.0
2017-Nov-27 19:58N 49°22' E 000°60'0 0.0
2017-Nov-27 19:28N 49°22' E 000°60'0 0.0
2017-Nov-27 18:58N 49°22' E 000°60'0 0.0
2017-Nov-27 18:30N 49°22' E 000°60'0 0.0
2017-Nov-27 18:00N 49°22' E 000°60'0 0.0
2017-Nov-27 17:30N 49°22' E 000°60'0 0.0
2017-Nov-27 17:00N 49°22' E 000°60'0 0.0
2017-Nov-27 16:29N 49°22' E 000°60'0 0.0
2017-Nov-27 15:59N 49°22' E 000°60'0 0.0
2017-Nov-27 15:29N 49°22' E 000°60'0 0.0
2017-Nov-27 14:59N 49°22' E 000°60'0 0.0
2017-Nov-27 14:29N 49°22' E 000°60'0 0.0
2017-Nov-27 13:58N 49°22' E 000°60'0 0.0
2017-Nov-27 13:28N 49°22' E 000°60'0 0.0
2017-Nov-27 12:58N 49°22' E 000°60'0 0.0
2017-Nov-27 12:28N 49°22' E 000°60'0 0.0
2017-Nov-27 12:00N 49°22' E 000°60'0 0.0
2017-Nov-27 11:30N 49°22' E 000°60'0 0.0
2017-Nov-27 11:00N 49°22' E 000°60'0 0.0
2017-Nov-27 10:30N 49°22' E 000°60'0 0.0
2017-Nov-27 09:57N 49°22' E 000°60'0 0.0
2017-Nov-27 09:29N 49°22' E 000°60'0 0.0
2017-Nov-27 08:59N 49°22' E 000°60'0 0.0
2017-Nov-27 08:26N 49°22' E 000°60'0 0.0
2017-Nov-27 07:59N 49°22' E 000°60'0 0.0
2017-Nov-27 07:29N 49°22' E 000°60'0 0.0
2017-Nov-27 06:55N 49°22' E 000°60'0 0.0
2017-Nov-27 06:25N 49°22' E 000°60'0 0.0
2017-Nov-27 05:58N 49°22' E 000°60'0 0.0
2017-Nov-27 05:28N 49°22' E 000°60'0 0.0
2017-Nov-27 05:00N 49°22' E 000°60'0 0.0
2017-Nov-27 04:30N 49°22' E 000°60'0 0.0
2017-Nov-27 04:00N 49°22' E 000°60'0 0.0
2017-Nov-27 03:30N 49°22' E 000°60'0 0.0
2017-Nov-27 03:00N 49°22' E 000°60'0 0.0
2017-Nov-27 02:29N 49°22' E 000°60'0 0.0
2017-Nov-27 01:59N 49°22' E 000°60'0 0.0
2017-Nov-27 01:29N 49°22' E 000°60'0 0.0
2017-Nov-27 00:59N 49°22' E 000°60'0 0.0
2017-Nov-27 00:29N 49°22' E 000°60'0 0.0
2017-Nov-26 23:58N 49°22' E 000°60'0 0.0
2017-Nov-26 23:28N 49°22' E 000°60'0 0.0
2017-Nov-26 22:58N 49°22' E 000°60'0 0.0
2017-Nov-26 22:28N 49°22' E 000°60'0 0.0
2017-Nov-26 22:00N 49°22' E 000°60'0 0.0
2017-Nov-26 21:27N 49°22' E 000°60'0 0.0
2017-Nov-26 21:00N 49°22' E 000°60'0 0.0
2017-Nov-26 20:30N 49°22' E 000°60'0 0.0
2017-Nov-26 20:00N 49°22' E 000°60'0 0.0
2017-Nov-26 19:30N 49°22' E 000°60'2 3.8
2017-Nov-26 19:00N 49°21' E 000°57'4 8.1
2017-Nov-26 18:30N 49°25' E 000°56'4 8.8
2017-Nov-26 18:01N 49°29' E 000°53'510.0
2017-Nov-26 17:30N 49°24' E 000°52'4 7.6
2017-Nov-26 17:00N 49°27' E 000°49'510.4
2017-Nov-26 16:30N 49°31' E 000°44'5 9.5
2017-Nov-26 16:01N 49°27' E 000°40'5 9.2
2017-Nov-26 15:31N 49°28' E 000°33'5 9.3
2017-Nov-26 15:01N 49°27' E 000°26'611.9
2017-Nov-26 14:31N 49°26' E 000°17'611.5
2017-Nov-26 14:00N 49°26' E 000°08'510.7
2017-Nov-26 13:30N 49°28' E 000°00'611.2
2017-Nov-26 13:00N 49°30' W 000°08'611.8
2017-Nov-26 12:30N 49°32' W 000°17'612.0
2017-Nov-26 12:00N 49°34' W 000°25'612.1
2017-Nov-26 11:30N 49°36' W 000°34'612.2
2017-Nov-26 11:01N 49°38' W 000°43'612.1
2017-Nov-26 10:30N 49°40' W 000°52'611.9
2017-Nov-26 10:00N 49°42' W 001°00'611.5
2017-Nov-26 09:30N 49°44' W 001°09'611.1
2017-Nov-26 09:00N 49°46' W 001°17'510.6
2017-Nov-26 08:30N 49°47' W 001°25'5 9.6
2017-Nov-26 08:00N 49°48' W 001°32'5 9.2
2017-Nov-26 07:31N 49°48' W 001°39'5 9.1
2017-Nov-26 07:00N 49°49' W 001°46'4 8.7
2017-Nov-26 06:30N 49°50' W 001°53'4 8.4
2017-Nov-26 06:00N 49°50' W 001°59'4 8.5
2017-Nov-26 05:30N 49°51' W 002°06'26 9.9
2017-Nov-26 02:50N 49°52' W 002°47'410.8
2017-Nov-26 02:30N 49°52' W 002°52'611.0
2017-Nov-26 01:55N 49°52' W 003°02'511.1
2017-Nov-26 01:31N 49°52' W 003°09'611.2
2017-Nov-26 01:00N 49°52' W 003°18'611.3
2017-Nov-26 00:30N 49°53' W 003°27'611.3
2017-Nov-26 00:00N 49°53' W 003°36'611.4
2017-Nov-25 23:30N 49°53' W 003°44'1711.5
2017-Nov-25 21:59N 49°53' W 004°12'611.5
2017-Nov-25 21:29N 49°53' W 004°20'611.4
2017-Nov-25 20:57N 49°54' W 004°30'511.4
2017-Nov-25 20:30N 49°54' W 004°38'611.3
2017-Nov-25 19:59N 49°54' W 004°47'911.1
2017-Nov-25 19:10N 49°54' W 005°01'211.1
2017-Nov-25 19:00N 49°54' W 005°04'4 6.7
2017-Nov-25 18:26N 49°54' W 005°10'15 8.3
2017-Nov-25 16:38N 49°55' W 005°33'13010.2
2017-Nov-25 03:54N 52°06' W 005°44'511.9
2017-Nov-25 03:30N 52°10' W 005°41'611.5
2017-Nov-25 02:58N 52°16' W 005°37'511.1
2017-Nov-25 02:30N 52°21' W 005°34'90 9.5
2017-Nov-24 17:05N 53°33' W 004°06'211.2
2017-Nov-24 16:57N 53°33' W 004°04'511.0
2017-Nov-24 16:30N 53°33' W 003°55'510.7
2017-Nov-24 16:00N 53°33' W 003°46'510.6
2017-Nov-24 15:30N 53°33' W 003°37'510.6
2017-Nov-24 15:00N 53°33' W 003°29'510.5
2017-Nov-24 14:30N 53°32' W 003°20'4 8.7
2017-Nov-24 14:00N 53°31' W 003°13'5 9.1
2017-Nov-24 13:30N 53°30' W 003°05'5 9.1
2017-Nov-24 13:00N 53°26' W 003°01'4 7.7
2017-Nov-24 12:30N 53°22' W 002°59'3 6.9
2017-Nov-24 12:00N 53°19' W 002°57'0 0.9
2017-Nov-24 11:30N 53°19' W 002°56'2 4.3
2017-Nov-24 11:00N 53°18' W 002°54'0 0.0
2017-Nov-24 10:30N 53°18' W 002°54'  
Track history (hours):
 
Tides and Currents Weather Stations Pressure Air Temp Water Temp Dewpoint Dewpoint Depression Visibility Wind Speed Wind Dir Waves Ship Positions

Bente

Last reported at 2017-Dec-04 10:30 UTC. Time now 2017-Dec-13 07:23 UTC.
Position N 35°54' W 005°19'.
Warning: this ship's position is 8 days out of date.

Length 90 m; draft 5.5 m.

Type: Ship. MMSI: 245870000.

Date/timePositionNaut miles runAvg speedWind from/ knotsBaromVisibWave heightAir tempDewpointWater temp
2017-Dec-04 10:30N 35°54' W 005°19'0 0.0
2017-Dec-04 10:00N 35°54' W 005°19'0 0.0
2017-Dec-04 09:30N 35°54' W 005°19'0 0.0
2017-Dec-04 09:00N 35°54' W 005°19'0 0.0
2017-Dec-04 08:30N 35°54' W 005°19'0 0.8
2017-Dec-04 08:00N 35°54' W 005°19'2 4.2
2017-Dec-04 07:30N 35°56' W 005°20'1 2.4
2017-Dec-04 07:00N 35°56' W 005°21'1 2.9
2017-Dec-04 06:30N 35°56' W 005°23'611.1
2017-Dec-04 06:00N 35°57' W 005°30'258 8.2
2017-Dec-02 22:38N 38°21' W 009°58'2 9.8
2017-Dec-02 22:28N 38°23' W 009°59'510.0
2017-Dec-02 22:00N 38°27' W 010°00'510.1
2017-Dec-02 21:30N 38°32' W 010°02'810.1
2017-Dec-02 20:43N 38°40' W 010°04'3 9.9
2017-Dec-02 20:23N 38°43' W 010°05'410.2
2017-Dec-02 20:00N 38°47' W 010°05'610.4
2017-Dec-02 19:27N 38°53' W 010°05'510.6
2017-Dec-02 19:01N 38°57' W 010°05'510.6
2017-Dec-02 18:30N 39°03' W 010°05'510.8
2017-Dec-02 18:00N 39°08' W 010°05'510.7
2017-Dec-02 17:30N 39°14' W 010°05'  
2017-Nov-29 16:31N 49°47' W 003°22'0 9.3
2017-Nov-29 16:28N 49°47' W 003°21'4 9.2
2017-Nov-29 16:00N 49°49' W 003°15'4 9.0
2017-Nov-29 15:31N 49°51' W 003°09'5 8.9
2017-Nov-29 14:59N 49°54' W 003°03'4 8.9
2017-Nov-29 14:31N 49°56' W 002°57'4 8.8
2017-Nov-29 14:00N 49°58' W 002°51'5 9.0
2017-Nov-29 13:26N 49°59' W 002°43'4 9.4
2017-Nov-29 13:00N 49°60' W 002°37'19 9.7
2017-Nov-29 11:01N 49°58' W 002°07'010.2
2017-Nov-29 10:59N 49°58' W 002°07'511.0
2017-Nov-29 10:30N 49°56' W 001°59'611.2
2017-Nov-29 10:00N 49°54' W 001°51'611.6
2017-Nov-29 09:30N 49°52' W 001°42'611.6
2017-Nov-29 09:00N 49°50' W 001°34'611.5
2017-Nov-29 08:30N 49°48' W 001°26'611.8
2017-Nov-29 08:00N 49°46' W 001°17'611.2
2017-Nov-29 07:30N 49°44' W 001°09'510.1
2017-Nov-29 07:01N 49°42' W 001°01'5 9.5
2017-Nov-29 06:30N 49°41' W 000°54'5 9.3
2017-Nov-29 06:00N 49°39' W 000°48'5 9.1
2017-Nov-29 05:30N 49°38' W 000°41'4 8.9
2017-Nov-29 05:00N 49°37' W 000°34'4 8.6
2017-Nov-29 04:30N 49°35' W 000°29'4 8.5
2017-Nov-29 04:00N 49°33' W 000°22'4 8.7
2017-Nov-29 03:30N 49°32' W 000°16'4 9.0
2017-Nov-29 03:00N 49°30' W 000°10'5 9.4
2017-Nov-29 02:30N 49°29' W 000°03'4 8.8
2017-Nov-29 02:00N 49°27' E 000°03'5 9.4
2017-Nov-29 01:30N 49°26' E 000°10'510.7
2017-Nov-29 01:00N 49°26' E 000°19'611.5
2017-Nov-29 00:30N 49°28' E 000°27'5 9.1
2017-Nov-29 00:00N 49°27' E 000°34'5 9.1
2017-Nov-28 23:30N 49°29' E 000°40'4 8.7
2017-Nov-28 23:00N 49°31' E 000°46'5 9.8
2017-Nov-28 22:30N 49°26' E 000°48'2 4.8
2017-Nov-28 22:00N 49°25' E 000°52'4 8.2
2017-Nov-28 21:31N 49°29' E 000°55'5 9.7
2017-Nov-28 21:00N 49°24' E 000°55'4 7.1
2017-Nov-28 20:31N 49°21' E 000°59'1 2.2
2017-Nov-28 20:00N 49°22' E 000°60'0 0.0
2017-Nov-28 19:30N 49°22' E 000°60'0 0.0
2017-Nov-28 19:00N 49°22' E 000°60'0 0.0
2017-Nov-28 18:30N 49°22' E 000°60'0 0.0
2017-Nov-28 18:00N 49°22' E 000°60'0 0.0
2017-Nov-28 17:28N 49°22' E 000°60'0 0.0
2017-Nov-28 16:58N 49°22' E 000°60'0 0.0
2017-Nov-28 16:28N 49°22' E 000°60'0 0.0
2017-Nov-28 15:58N 49°22' E 000°60'0 0.0
2017-Nov-28 14:57N 49°22' E 000°60'0 0.0
2017-Nov-28 14:30N 49°22' E 000°60'0 0.0
2017-Nov-28 14:00N 49°22' E 000°60'0 0.0
2017-Nov-28 13:30N 49°22' E 000°60'0 0.0
2017-Nov-28 12:59N 49°22' E 000°60'0 0.0
2017-Nov-28 12:29N 49°22' E 000°60'0 0.0
2017-Nov-28 11:59N 49°22' E 000°60'0 0.0
2017-Nov-28 11:29N 49°22' E 000°60'0 0.0
2017-Nov-28 10:58N 49°22' E 000°60'0 0.0
2017-Nov-28 10:28N 49°22' E 000°60'0 0.0
2017-Nov-28 09:58N 49°22' E 000°60'0 0.0
2017-Nov-28 09:28N 49°22' E 000°60'0 0.0
2017-Nov-28 08:58N 49°22' E 000°60'0 0.0
2017-Nov-28 08:30N 49°22' E 000°60'0 0.0
2017-Nov-28 08:00N 49°22' E 000°60'0 0.0
2017-Nov-28 07:30N 49°22' E 000°60'0 0.0
2017-Nov-28 07:00N 49°22' E 000°60'0 0.0
2017-Nov-28 06:29N 49°22' E 000°60'0 0.0
2017-Nov-28 05:59N 49°22' E 000°60'0 0.0
2017-Nov-28 05:29N 49°22' E 000°60'0 0.0
2017-Nov-28 04:29N 49°22' E 000°60'0 0.0
2017-Nov-28 03:58N 49°22' E 000°60'0 0.0
2017-Nov-28 03:28N 49°22' E 000°60'0 0.0
2017-Nov-28 02:58N 49°22' E 000°60'0 0.0
2017-Nov-28 02:28N 49°22' E 000°60'0 0.0
2017-Nov-28 01:58N 49°22' E 000°60'0 0.0
2017-Nov-28 01:30N 49°22' E 000°60'0 0.0
2017-Nov-28 01:00N 49°22' E 000°60'0 0.0
2017-Nov-28 00:30N 49°22' E 000°60'0 0.0
2017-Nov-27 23:57N 49°22' E 000°60'0 0.0
2017-Nov-27 23:29N 49°22' E 000°60'0 0.0
2017-Nov-27 22:59N 49°22' E 000°60'0 0.0
2017-Nov-27 22:29N 49°22' E 000°60'0 0.0
2017-Nov-27 21:59N 49°22' E 000°60'0 0.0
2017-Nov-27 21:29N 49°22' E 000°60'0 0.0
2017-Nov-27 20:58N 49°22' E 000°60'0 0.0
2017-Nov-27 20:25N 49°22' E 000°60'0 0.0
2017-Nov-27 19:58N 49°22' E 000°60'0 0.0
2017-Nov-27 19:28N 49°22' E 000°60'0 0.0
2017-Nov-27 18:58N 49°22' E 000°60'0 0.0
2017-Nov-27 18:30N 49°22' E 000°60'0 0.0
2017-Nov-27 18:00N 49°22' E 000°60'0 0.0
2017-Nov-27 17:30N 49°22' E 000°60'0 0.0
2017-Nov-27 17:00N 49°22' E 000°60'0 0.0
2017-Nov-27 16:29N 49°22' E 000°60'0 0.0
2017-Nov-27 15:59N 49°22' E 000°60'0 0.0
2017-Nov-27 15:29N 49°22' E 000°60'0 0.0
2017-Nov-27 14:59N 49°22' E 000°60'0 0.0
2017-Nov-27 14:29N 49°22' E 000°60'0 0.0
2017-Nov-27 13:58N 49°22' E 000°60'0 0.0
2017-Nov-27 13:28N 49°22' E 000°60'0 0.0
2017-Nov-27 12:58N 49°22' E 000°60'0 0.0
2017-Nov-27 12:28N 49°22' E 000°60'0 0.0
2017-Nov-27 12:00N 49°22' E 000°60'0 0.0
2017-Nov-27 11:30N 49°22' E 000°60'0 0.0
2017-Nov-27 11:00N 49°22' E 000°60'0 0.0
2017-Nov-27 10:30N 49°22' E 000°60'0 0.0
2017-Nov-27 09:57N 49°22' E 000°60'0 0.0
2017-Nov-27 09:29N 49°22' E 000°60'0 0.0
2017-Nov-27 08:59N 49°22' E 000°60'0 0.0
2017-Nov-27 08:26N 49°22' E 000°60'0 0.0
2017-Nov-27 07:59N 49°22' E 000°60'0 0.0
2017-Nov-27 07:29N 49°22' E 000°60'0 0.0
2017-Nov-27 06:55N 49°22' E 000°60'0 0.0
2017-Nov-27 06:25N 49°22' E 000°60'0 0.0
2017-Nov-27 05:58N 49°22' E 000°60'0 0.0
2017-Nov-27 05:28N 49°22' E 000°60'0 0.0
2017-Nov-27 05:00N 49°22' E 000°60'0 0.0
2017-Nov-27 04:30N 49°22' E 000°60'0 0.0
2017-Nov-27 04:00N 49°22' E 000°60'0 0.0
2017-Nov-27 03:30N 49°22' E 000°60'0 0.0
2017-Nov-27 03:00N 49°22' E 000°60'0 0.0
2017-Nov-27 02:29N 49°22' E 000°60'0 0.0
2017-Nov-27 01:59N 49°22' E 000°60'0 0.0
2017-Nov-27 01:29N 49°22' E 000°60'0 0.0
2017-Nov-27 00:59N 49°22' E 000°60'0 0.0
2017-Nov-27 00:29N 49°22' E 000°60'0 0.0
2017-Nov-26 23:58N 49°22' E 000°60'0 0.0
2017-Nov-26 23:28N 49°22' E 000°60'0 0.0
2017-Nov-26 22:58N 49°22' E 000°60'0 0.0
2017-Nov-26 22:28N 49°22' E 000°60'0 0.0
2017-Nov-26 22:00N 49°22' E 000°60'0 0.0
2017-Nov-26 21:27N 49°22' E 000°60'0 0.0
2017-Nov-26 21:00N 49°22' E 000°60'0 0.0
2017-Nov-26 20:30N 49°22' E 000°60'0 0.0
2017-Nov-26 20:00N 49°22' E 000°60'0 0.0
2017-Nov-26 19:30N 49°22' E 000°60'2 3.8
2017-Nov-26 19:00N 49°21' E 000°57'4 8.1
2017-Nov-26 18:30N 49°25' E 000°56'4 8.8
2017-Nov-26 18:01N 49°29' E 000°53'510.0
2017-Nov-26 17:30N 49°24' E 000°52'4 7.6
2017-Nov-26 17:00N 49°27' E 000°49'510.4
2017-Nov-26 16:30N 49°31' E 000°44'5 9.5
2017-Nov-26 16:01N 49°27' E 000°40'5 9.2
2017-Nov-26 15:31N 49°28' E 000°33'5 9.3
2017-Nov-26 15:01N 49°27' E 000°26'611.9
2017-Nov-26 14:31N 49°26' E 000°17'611.5
2017-Nov-26 14:00N 49°26' E 000°08'510.7
2017-Nov-26 13:30N 49°28' E 000°00'611.2
2017-Nov-26 13:00N 49°30' W 000°08'611.8
2017-Nov-26 12:30N 49°32' W 000°17'612.0
2017-Nov-26 12:00N 49°34' W 000°25'612.1
2017-Nov-26 11:30N 49°36' W 000°34'612.2
2017-Nov-26 11:01N 49°38' W 000°43'612.1
2017-Nov-26 10:30N 49°40' W 000°52'611.9
2017-Nov-26 10:00N 49°42' W 001°00'611.5
2017-Nov-26 09:30N 49°44' W 001°09'611.1
2017-Nov-26 09:00N 49°46' W 001°17'510.6
2017-Nov-26 08:30N 49°47' W 001°25'5 9.6
2017-Nov-26 08:00N 49°48' W 001°32'5 9.2
2017-Nov-26 07:31N 49°48' W 001°39'5 9.1
2017-Nov-26 07:00N 49°49' W 001°46'4 8.7
2017-Nov-26 06:30N 49°50' W 001°53'4 8.4
2017-Nov-26 06:00N 49°50' W 001°59'4 8.5
2017-Nov-26 05:30N 49°51' W 002°06'26 9.9
2017-Nov-26 02:50N 49°52' W 002°47'410.8
2017-Nov-26 02:30N 49°52' W 002°52'611.0
2017-Nov-26 01:55N 49°52' W 003°02'511.1
2017-Nov-26 01:31N 49°52' W 003°09'611.2
2017-Nov-26 01:00N 49°52' W 003°18'611.3
2017-Nov-26 00:30N 49°53' W 003°27'611.3
2017-Nov-26 00:00N 49°53' W 003°36'611.4
2017-Nov-25 23:30N 49°53' W 003°44'1711.5
2017-Nov-25 21:59N 49°53' W 004°12'611.5
2017-Nov-25 21:29N 49°53' W 004°20'611.4
2017-Nov-25 20:57N 49°54' W 004°30'511.4
2017-Nov-25 20:30N 49°54' W 004°38'611.3
2017-Nov-25 19:59N 49°54' W 004°47'911.1
2017-Nov-25 19:10N 49°54' W 005°01'211.1
2017-Nov-25 19:00N 49°54' W 005°04'4 6.7
2017-Nov-25 18:26N 49°54' W 005°10'15 8.3
2017-Nov-25 16:38N 49°55' W 005°33'13010.2
2017-Nov-25 03:54N 52°06' W 005°44'511.9
2017-Nov-25 03:30N 52°10' W 005°41'611.5
2017-Nov-25 02:58N 52°16' W 005°37'511.1
2017-Nov-25 02:30N 52°21' W 005°34'90 9.5
2017-Nov-24 17:05N 53°33' W 004°06'211.2
2017-Nov-24 16:57N 53°33' W 004°04'511.0
2017-Nov-24 16:30N 53°33' W 003°55'510.7
2017-Nov-24 16:00N 53°33' W 003°46'510.6
2017-Nov-24 15:30N 53°33' W 003°37'510.6
2017-Nov-24 15:00N 53°33' W 003°29'510.5
2017-Nov-24 14:30N 53°32' W 003°20'4 8.7
2017-Nov-24 14:00N 53°31' W 003°13'5 9.1
2017-Nov-24 13:30N 53°30' W 003°05'5 9.1
2017-Nov-24 13:00N 53°26' W 003°01'4 7.7
2017-Nov-24 12:30N 53°22' W 002°59'3 6.9
2017-Nov-24 12:00N 53°19' W 002°57'0 0.9
2017-Nov-24 11:30N 53°19' W 002°56'2 4.3
2017-Nov-24 11:00N 53°18' W 002°54'0 0.0
2017-Nov-24 10:30N 53°18' W 002°54'  

Dump ship's entire track history